createdAt,value
2018-06-25T00:00:05.972Z,8.04672
2018-06-25T00:00:18.448Z,8.04672
2018-06-25T00:00:30.889Z,8.04672
2018-06-25T00:00:43.342Z,8.04672
2018-06-25T00:00:55.957Z,9.656064
2018-06-25T00:01:08.368Z,6.437376
2018-06-25T00:01:21.043Z,6.437376
2018-06-25T00:01:33.487Z,9.656064
2018-06-25T00:01:45.927Z,9.656064
2018-06-25T00:01:58.347Z,9.656064
2018-06-25T00:02:10.842Z,9.656064
2018-06-25T00:02:23.249Z,9.656064
2018-06-25T00:02:35.661Z,11.265408
2018-06-25T00:02:48.096Z,11.265408
2018-06-25T00:03:00.511Z,11.265408
2018-06-25T00:03:12.911Z,9.656064
2018-06-25T00:03:25.330Z,12.874752
2018-06-25T00:03:37.735Z,12.874752
2018-06-25T00:03:50.149Z,12.874752
2018-06-25T00:04:02.539Z,12.874752
2018-06-25T00:04:14.941Z,8.04672
2018-06-25T00:04:27.354Z,8.04672
2018-06-25T00:04:39.772Z,8.04672
2018-06-25T00:04:52.159Z,8.04672
2018-06-25T00:05:04.584Z,8.04672
2018-06-25T00:05:17.009Z,8.04672
2018-06-25T00:05:29.422Z,9.656064
2018-06-25T00:05:41.890Z,9.656064
2018-06-25T00:05:54.278Z,9.656064
2018-06-25T00:06:06.682Z,11.265408
2018-06-25T00:06:19.109Z,11.265408
2018-06-25T00:06:31.524Z,11.265408
2018-06-25T00:06:43.944Z,11.265408
2018-06-25T00:06:56.346Z,11.265408
2018-06-25T00:07:08.741Z,11.265408
2018-06-25T00:07:21.150Z,11.265408
2018-06-25T00:07:33.601Z,11.265408
2018-06-25T00:07:46.029Z,11.265408
2018-06-25T00:07:58.570Z,11.265408
2018-06-25T00:08:10.984Z,6.437376
2018-06-25T00:08:23.383Z,8.04672
2018-06-25T00:08:35.797Z,8.04672
2018-06-25T00:08:48.193Z,9.656064
2018-06-25T00:09:00.599Z,11.265408
2018-06-25T00:09:13.023Z,9.656064
2018-06-25T00:09:25.511Z,9.656064
2018-06-25T00:09:37.962Z,9.656064
2018-06-25T00:09:50.434Z,9.656064
2018-06-25T00:10:02.863Z,9.656064
2018-06-25T00:10:15.292Z,6.437376
2018-06-25T00:10:27.706Z,6.437376
2018-06-25T00:10:40.099Z,6.437376
2018-06-25T00:10:52.501Z,6.437376
2018-06-25T00:11:04.901Z,6.437376
2018-06-25T00:11:17.317Z,8.04672
2018-06-25T00:11:29.741Z,8.04672
2018-06-25T00:11:42.150Z,8.04672
2018-06-25T00:11:54.580Z,8.04672
2018-06-25T00:12:06.987Z,6.437376
2018-06-25T00:12:19.447Z,8.04672
2018-06-25T00:12:31.850Z,8.04672
2018-06-25T00:12:44.245Z,9.656064
2018-06-25T00:12:56.656Z,11.265408
2018-06-25T00:13:09.068Z,8.04672
2018-06-25T00:13:21.473Z,8.04672
2018-06-25T00:13:33.931Z,9.656064
2018-06-25T00:13:46.309Z,9.656064
2018-06-25T00:13:58.692Z,9.656064
2018-06-25T00:14:11.106Z,8.04672
2018-06-25T00:14:23.510Z,8.04672
2018-06-25T00:14:35.921Z,8.04672
2018-06-25T00:14:48.335Z,8.04672
2018-06-25T00:15:00.729Z,8.04672
2018-06-25T00:15:13.141Z,6.437376
2018-06-25T00:15:25.529Z,6.437376
2018-06-25T00:15:37.942Z,6.437376
2018-06-25T00:15:50.359Z,6.437376
2018-06-25T00:16:02.787Z,6.437376
2018-06-25T00:16:15.193Z,4.828032
2018-06-25T00:16:27.585Z,4.828032
2018-06-25T00:16:39.978Z,4.828032
2018-06-25T00:16:52.385Z,4.828032
2018-06-25T00:17:04.785Z,3.218688
2018-06-25T00:17:17.200Z,6.437376
2018-06-25T00:17:29.728Z,6.437376
2018-06-25T00:17:42.194Z,6.437376
2018-06-25T00:17:54.598Z,6.437376
2018-06-25T00:18:07.009Z,1.609344
2018-06-25T00:18:19.421Z,3.218688
2018-06-25T00:18:31.825Z,8.04672
2018-06-25T00:18:44.233Z,8.04672
2018-06-25T00:18:56.637Z,8.04672
2018-06-25T00:19:09.073Z,8.04672
2018-06-25T00:19:21.464Z,8.04672
2018-06-25T00:19:33.901Z,8.04672
2018-06-25T00:19:46.321Z,8.04672
2018-06-25T00:19:58.783Z,8.04672
2018-06-25T00:20:11.221Z,6.437376
2018-06-25T00:20:23.621Z,6.437376
2018-06-25T00:20:36.206Z,6.437376
2018-06-25T00:20:48.609Z,6.437376
2018-06-25T00:21:01.014Z,6.437376
2018-06-25T00:21:13.434Z,4.828032
2018-06-25T00:21:25.870Z,6.437376
2018-06-25T00:21:38.261Z,6.437376
2018-06-25T00:21:50.661Z,6.437376
2018-06-25T00:22:03.047Z,6.437376
2018-06-25T00:22:15.447Z,4.828032
2018-06-25T00:22:27.846Z,6.437376
2018-06-25T00:22:40.263Z,8.04672
2018-06-25T00:22:52.675Z,8.04672
2018-06-25T00:23:05.080Z,3.218688
2018-06-25T00:23:17.488Z,3.218688
2018-06-25T00:23:29.898Z,3.218688
2018-06-25T00:23:42.313Z,3.218688
2018-06-25T00:23:54.715Z,4.828032
2018-06-25T00:24:07.135Z,3.218688
2018-06-25T00:24:19.526Z,4.828032
2018-06-25T00:24:31.938Z,8.04672
2018-06-25T00:24:44.366Z,8.04672
2018-06-25T00:24:56.765Z,9.656064
2018-06-25T00:25:09.203Z,9.656064
2018-06-25T00:25:21.618Z,9.656064
2018-06-25T00:25:34.068Z,9.656064
2018-06-25T00:25:46.642Z,9.656064
2018-06-25T00:25:59.051Z,9.656064
2018-06-25T00:26:11.462Z,4.828032
2018-06-25T00:26:23.865Z,8.04672
2018-06-25T00:26:36.274Z,9.656064
2018-06-25T00:26:48.826Z,9.656064
2018-06-25T00:27:01.231Z,9.656064
2018-06-25T00:27:13.654Z,6.437376
2018-06-25T00:27:26.071Z,6.437376
2018-06-25T00:27:38.525Z,6.437376
2018-06-25T00:27:50.921Z,6.437376
2018-06-25T00:28:03.325Z,6.437376
2018-06-25T00:28:15.734Z,6.437376
2018-06-25T00:28:28.165Z,6.437376
2018-06-25T00:28:40.579Z,6.437376
2018-06-25T00:28:52.974Z,6.437376
2018-06-25T00:29:05.371Z,8.04672
2018-06-25T00:29:17.828Z,8.04672
2018-06-25T00:29:30.224Z,8.04672
2018-06-25T00:29:42.647Z,8.04672
2018-06-25T00:29:55.078Z,8.04672
2018-06-25T00:30:07.492Z,3.218688
2018-06-25T00:30:19.910Z,6.437376
2018-06-25T00:30:32.314Z,6.437376
2018-06-25T00:30:44.732Z,6.437376
2018-06-25T00:30:57.167Z,8.04672
2018-06-25T00:31:09.573Z,8.04672
2018-06-25T00:31:22.034Z,8.04672
2018-06-25T00:31:34.461Z,8.04672
2018-06-25T00:31:46.911Z,8.04672
2018-06-25T00:31:59.320Z,8.04672
2018-06-25T00:32:11.716Z,4.828032
2018-06-25T00:32:24.138Z,4.828032
2018-06-25T00:32:36.527Z,6.437376
2018-06-25T00:32:48.925Z,8.04672
2018-06-25T00:33:01.650Z,8.04672
2018-06-25T00:33:14.070Z,8.04672
2018-06-25T00:33:26.477Z,8.04672
2018-06-25T00:33:38.896Z,8.04672
2018-06-25T00:33:51.298Z,8.04672
2018-06-25T00:34:03.687Z,8.04672
2018-06-25T00:34:16.104Z,8.04672
2018-06-25T00:34:28.492Z,8.04672
2018-06-25T00:34:40.917Z,8.04672
2018-06-25T00:34:53.315Z,8.04672
2018-06-25T00:35:05.771Z,9.656064
2018-06-25T00:35:18.226Z,11.265408
2018-06-25T00:35:30.618Z,11.265408
2018-06-25T00:35:43.026Z,11.265408
2018-06-25T00:35:55.430Z,11.265408
2018-06-25T00:36:07.837Z,6.437376
2018-06-25T00:36:20.233Z,6.437376
2018-06-25T00:36:32.631Z,6.437376
2018-06-25T00:36:45.040Z,8.04672
2018-06-25T00:36:57.475Z,8.04672
2018-06-25T00:37:09.866Z,4.828032
2018-06-25T00:37:22.284Z,4.828032
2018-06-25T00:37:34.714Z,4.828032
2018-06-25T00:37:47.119Z,6.437376
2018-06-25T00:37:59.506Z,8.04672
2018-06-25T00:38:11.906Z,6.437376
2018-06-25T00:38:24.328Z,9.656064
2018-06-25T00:38:36.737Z,9.656064
2018-06-25T00:38:49.154Z,9.656064
2018-06-25T00:39:01.567Z,9.656064
2018-06-25T00:39:13.992Z,8.04672
2018-06-25T00:39:26.390Z,9.656064
2018-06-25T00:39:38.797Z,9.656064
2018-06-25T00:39:51.216Z,11.265408
2018-06-25T00:40:03.622Z,6.437376
2018-06-25T00:40:16.036Z,8.04672
2018-06-25T00:40:28.434Z,8.04672
2018-06-25T00:40:40.858Z,9.656064
2018-06-25T00:40:53.266Z,9.656064
2018-06-25T00:41:05.674Z,6.437376
2018-06-25T00:41:18.063Z,8.04672
2018-06-25T00:41:30.461Z,9.656064
2018-06-25T00:41:42.868Z,9.656064
2018-06-25T00:41:55.294Z,9.656064
2018-06-25T00:42:07.772Z,8.04672
2018-06-25T00:42:20.200Z,8.04672
2018-06-25T00:42:32.609Z,8.04672
2018-06-25T00:42:45.083Z,9.656064
2018-06-25T00:42:57.481Z,11.265408
2018-06-25T00:43:09.899Z,9.656064
2018-06-25T00:43:22.300Z,9.656064
2018-06-25T00:43:34.703Z,11.265408
2018-06-25T00:43:47.102Z,11.265408
2018-06-25T00:43:59.511Z,11.265408
2018-06-25T00:44:11.923Z,8.04672
2018-06-25T00:44:24.319Z,8.04672
2018-06-25T00:44:36.861Z,8.04672
2018-06-25T00:44:49.252Z,8.04672
2018-06-25T00:45:01.690Z,8.04672
2018-06-25T00:45:14.099Z,6.437376
2018-06-25T00:45:26.494Z,6.437376
2018-06-25T00:45:38.914Z,6.437376
2018-06-25T00:45:51.444Z,6.437376
2018-06-25T00:46:03.870Z,8.04672
2018-06-25T00:46:16.294Z,8.04672
2018-06-25T00:46:28.695Z,8.04672
2018-06-25T00:46:41.099Z,8.04672
2018-06-25T00:46:53.511Z,8.04672
2018-06-25T00:47:05.930Z,3.218688
2018-06-25T00:47:18.342Z,6.437376
2018-06-25T00:47:30.755Z,6.437376
2018-06-25T00:47:43.315Z,6.437376
2018-06-25T00:47:55.729Z,6.437376
2018-06-25T00:48:08.132Z,6.437376
2018-06-25T00:48:20.554Z,6.437376
2018-06-25T00:48:32.960Z,8.04672
2018-06-25T00:48:45.459Z,8.04672
2018-06-25T00:48:57.859Z,8.04672
2018-06-25T00:49:10.258Z,4.828032
2018-06-25T00:49:22.658Z,6.437376
2018-06-25T00:49:35.060Z,8.04672
2018-06-25T00:49:47.459Z,8.04672
2018-06-25T00:49:59.867Z,8.04672
2018-06-25T00:50:12.670Z,3.218688
2018-06-25T00:50:25.068Z,3.218688
2018-06-25T00:50:37.476Z,3.218688
2018-06-25T00:50:49.904Z,4.828032
2018-06-25T00:51:02.320Z,4.828032
2018-06-25T00:51:14.734Z,4.828032
2018-06-25T00:51:27.134Z,4.828032
2018-06-25T00:51:39.526Z,4.828032
2018-06-25T00:51:51.924Z,6.437376
2018-06-25T00:52:04.353Z,3.218688
2018-06-25T00:52:16.769Z,3.218688
2018-06-25T00:52:29.159Z,3.218688
2018-06-25T00:52:41.565Z,3.218688
2018-06-25T00:52:53.962Z,6.437376
2018-06-25T00:53:06.358Z,1.609344
2018-06-25T00:53:18.796Z,3.218688
2018-06-25T00:53:31.196Z,3.218688
2018-06-25T00:53:43.643Z,3.218688
2018-06-25T00:53:56.052Z,3.218688
2018-06-25T00:54:08.462Z,1.609344
2018-06-25T00:54:20.853Z,1.609344
2018-06-25T00:54:33.249Z,1.609344
2018-06-25T00:54:45.661Z,1.609344
2018-06-25T00:54:58.080Z,1.609344
2018-06-25T00:55:10.494Z,1.609344
2018-06-25T00:55:22.963Z,1.609344
2018-06-25T00:55:35.360Z,1.609344
2018-06-25T00:55:47.765Z,3.218688
2018-06-25T00:56:00.165Z,3.218688
2018-06-25T00:56:12.579Z,1.609344
2018-06-25T00:56:24.968Z,3.218688
2018-06-25T00:56:37.391Z,4.828032
2018-06-25T00:56:49.811Z,4.828032
2018-06-25T00:57:02.217Z,4.828032
2018-06-25T00:57:14.673Z,3.218688
2018-06-25T00:57:27.092Z,3.218688
2018-06-25T00:57:39.483Z,3.218688
2018-06-25T00:57:51.881Z,3.218688
2018-06-25T00:58:04.307Z,3.218688
2018-06-25T00:58:16.729Z,3.218688
2018-06-25T00:58:29.125Z,6.437376
2018-06-25T00:58:41.538Z,6.437376
2018-06-25T00:58:53.954Z,6.437376
2018-06-25T00:59:06.361Z,4.828032
2018-06-25T00:59:18.778Z,4.828032
2018-06-25T00:59:31.181Z,4.828032
2018-06-25T00:59:43.569Z,4.828032
2018-06-25T00:59:55.967Z,4.828032
2018-06-25T01:00:08.391Z,4.828032
2018-06-25T01:00:20.868Z,4.828032
2018-06-25T01:00:33.300Z,4.828032
2018-06-25T01:00:45.749Z,4.828032
2018-06-25T01:00:58.305Z,4.828032
2018-06-25T01:01:10.843Z,3.218688
2018-06-25T01:01:23.241Z,4.828032
2018-06-25T01:01:35.668Z,6.437376
2018-06-25T01:01:48.080Z,6.437376
2018-06-25T01:02:00.487Z,6.437376
2018-06-25T01:02:12.892Z,3.218688
2018-06-25T01:02:25.314Z,3.218688
2018-06-25T01:02:37.722Z,3.218688
2018-06-25T01:02:50.180Z,6.437376
2018-06-25T01:03:02.625Z,8.04672
2018-06-25T01:03:15.042Z,8.04672
2018-06-25T01:03:27.435Z,8.04672
2018-06-25T01:03:39.864Z,8.04672
2018-06-25T01:03:52.280Z,8.04672
2018-06-25T01:04:04.747Z,6.437376
2018-06-25T01:04:17.154Z,6.437376
2018-06-25T01:04:29.550Z,8.04672
2018-06-25T01:04:41.947Z,8.04672
2018-06-25T01:04:54.361Z,8.04672
2018-06-25T01:05:06.806Z,6.437376
2018-06-25T01:05:19.200Z,6.437376
2018-06-25T01:05:31.648Z,6.437376
2018-06-25T01:05:44.043Z,6.437376
2018-06-25T01:05:56.580Z,6.437376
2018-06-25T01:06:09.893Z,6.437376
2018-06-25T01:06:22.320Z,6.437376
2018-06-25T01:06:34.712Z,6.437376
2018-06-25T01:06:47.139Z,6.437376
2018-06-25T01:06:59.557Z,6.437376
2018-06-25T01:07:11.971Z,6.437376
2018-06-25T01:07:24.436Z,8.04672
2018-06-25T01:07:36.849Z,8.04672
2018-06-25T01:07:49.385Z,8.04672
2018-06-25T01:08:01.822Z,8.04672
2018-06-25T01:08:14.220Z,3.218688
2018-06-25T01:08:26.618Z,4.828032
2018-06-25T01:08:39.017Z,6.437376
2018-06-25T01:08:51.443Z,6.437376
2018-06-25T01:09:03.861Z,4.828032
2018-06-25T01:09:16.273Z,6.437376
2018-06-25T01:09:28.693Z,6.437376
2018-06-25T01:09:41.105Z,6.437376
2018-06-25T01:09:53.517Z,6.437376
2018-06-25T01:10:05.932Z,3.218688
2018-06-25T01:10:18.344Z,3.218688
2018-06-25T01:10:30.746Z,3.218688
2018-06-25T01:10:43.145Z,3.218688
2018-06-25T01:10:55.567Z,4.828032
2018-06-25T01:11:07.989Z,6.437376
2018-06-25T01:11:20.462Z,6.437376
2018-06-25T01:11:32.871Z,6.437376
2018-06-25T01:11:45.269Z,6.437376
2018-06-25T01:11:57.676Z,6.437376
2018-06-25T01:12:10.091Z,1.609344
2018-06-25T01:12:22.483Z,1.609344
2018-06-25T01:12:34.876Z,1.609344
2018-06-25T01:12:47.267Z,1.609344
2018-06-25T01:12:59.702Z,1.609344
2018-06-25T01:13:12.121Z,3.218688
2018-06-25T01:13:24.520Z,3.218688
2018-06-25T01:13:36.923Z,3.218688
2018-06-25T01:13:49.318Z,3.218688
2018-06-25T01:14:01.713Z,3.218688
2018-06-25T01:14:14.109Z,1.609344
2018-06-25T01:14:26.505Z,1.609344
2018-06-25T01:14:38.909Z,1.609344
2018-06-25T01:14:51.322Z,1.609344
2018-06-25T01:15:03.773Z,1.609344
2018-06-25T01:15:16.234Z,1.609344
2018-06-25T01:15:28.683Z,1.609344
2018-06-25T01:15:41.097Z,1.609344
2018-06-25T01:15:53.493Z,1.609344
2018-06-25T01:16:05.943Z,3.218688
2018-06-25T01:16:18.353Z,3.218688
2018-06-25T01:16:30.759Z,3.218688
2018-06-25T01:16:43.163Z,3.218688
2018-06-25T01:16:55.578Z,6.437376
2018-06-25T01:17:07.992Z,3.218688
2018-06-25T01:17:20.466Z,3.218688
2018-06-25T01:17:32.864Z,6.437376
2018-06-25T01:17:45.273Z,6.437376
2018-06-25T01:17:57.695Z,9.656064
2018-06-25T01:18:10.118Z,9.656064
2018-06-25T01:18:22.510Z,9.656064
2018-06-25T01:18:34.960Z,9.656064
2018-06-25T01:18:47.366Z,9.656064
2018-06-25T01:18:59.768Z,9.656064
2018-06-25T01:19:12.236Z,3.218688
2018-06-25T01:19:24.708Z,3.218688
2018-06-25T01:19:37.110Z,3.218688
2018-06-25T01:19:49.512Z,3.218688
2018-06-25T01:20:01.921Z,3.218688
2018-06-25T01:20:14.334Z,3.218688
2018-06-25T01:20:26.859Z,3.218688
2018-06-25T01:20:39.394Z,6.437376
2018-06-25T01:20:51.808Z,6.437376
2018-06-25T01:21:04.218Z,3.218688
2018-06-25T01:21:16.607Z,4.828032
2018-06-25T01:21:29.021Z,6.437376
2018-06-25T01:21:41.431Z,6.437376
2018-06-25T01:21:53.860Z,8.04672
2018-06-25T01:22:06.271Z,6.437376
2018-06-25T01:22:18.698Z,6.437376
2018-06-25T01:22:31.162Z,6.437376
2018-06-25T01:22:43.564Z,6.437376
2018-06-25T01:22:56.015Z,6.437376
2018-06-25T01:23:08.410Z,1.609344
2018-06-25T01:23:20.808Z,1.609344
2018-06-25T01:23:33.220Z,3.218688
2018-06-25T01:23:45.622Z,3.218688
2018-06-25T01:23:58.033Z,3.218688
2018-06-25T01:24:10.453Z,3.218688
2018-06-25T01:24:22.839Z,4.828032
2018-06-25T01:24:35.284Z,4.828032
2018-06-25T01:24:47.700Z,4.828032
2018-06-25T01:25:00.107Z,4.828032
2018-06-25T01:25:12.509Z,1.609344
2018-06-25T01:25:25.015Z,1.609344
2018-06-25T01:25:37.429Z,1.609344
2018-06-25T01:25:49.837Z,1.609344
2018-06-25T01:26:02.230Z,6.437376
2018-06-25T01:26:14.639Z,6.437376
2018-06-25T01:26:27.031Z,6.437376
2018-06-25T01:26:39.430Z,6.437376
2018-06-25T01:26:51.987Z,6.437376
2018-06-25T01:27:04.409Z,3.218688
2018-06-25T01:27:16.830Z,3.218688
2018-06-25T01:27:29.258Z,3.218688
2018-06-25T01:27:41.662Z,3.218688
2018-06-25T01:27:54.084Z,3.218688
2018-06-25T01:28:06.475Z,3.218688
2018-06-25T01:28:18.872Z,3.218688
2018-06-25T01:28:31.265Z,6.437376
2018-06-25T01:28:43.677Z,8.04672
2018-06-25T01:28:56.072Z,8.04672
2018-06-25T01:29:08.473Z,6.437376
2018-06-25T01:29:20.892Z,6.437376
2018-06-25T01:29:33.309Z,8.04672
2018-06-25T01:29:45.749Z,8.04672
2018-06-25T01:29:58.159Z,8.04672
2018-06-25T01:30:10.579Z,6.437376
2018-06-25T01:30:22.983Z,6.437376
2018-06-25T01:30:35.410Z,6.437376
2018-06-25T01:30:47.823Z,6.437376
2018-06-25T01:31:00.204Z,6.437376
2018-06-25T01:31:12.611Z,1.609344
2018-06-25T01:31:25.006Z,3.218688
2018-06-25T01:31:37.444Z,3.218688
2018-06-25T01:31:49.852Z,3.218688
2018-06-25T01:32:02.275Z,3.218688
2018-06-25T01:32:14.679Z,1.609344
2018-06-25T01:32:27.127Z,1.609344
2018-06-25T01:32:39.519Z,1.609344
2018-06-25T01:32:51.967Z,1.609344
2018-06-25T01:33:04.501Z,3.218688
2018-06-25T01:33:16.906Z,3.218688
2018-06-25T01:33:29.353Z,6.437376
2018-06-25T01:33:41.751Z,6.437376
2018-06-25T01:33:54.136Z,9.656064
2018-06-25T01:34:06.555Z,6.437376
2018-06-25T01:34:18.950Z,6.437376
2018-06-25T01:34:31.374Z,6.437376
2018-06-25T01:34:43.828Z,6.437376
2018-06-25T01:34:56.232Z,6.437376
2018-06-25T01:35:08.643Z,1.609344
2018-06-25T01:35:21.061Z,1.609344
2018-06-25T01:35:33.453Z,1.609344
2018-06-25T01:35:45.846Z,1.609344
2018-06-25T01:35:58.250Z,1.609344
2018-06-25T01:36:10.662Z,1.609344
2018-06-25T01:36:23.073Z,4.828032
2018-06-25T01:36:35.474Z,4.828032
2018-06-25T01:36:47.868Z,4.828032
2018-06-25T01:37:00.285Z,4.828032
2018-06-25T01:37:12.727Z,3.218688
2018-06-25T01:37:25.130Z,3.218688
2018-06-25T01:37:37.539Z,3.218688
2018-06-25T01:37:49.937Z,3.218688
2018-06-25T01:38:02.389Z,9.656064
2018-06-25T01:38:14.803Z,9.656064
2018-06-25T01:38:27.220Z,9.656064
2018-06-25T01:38:39.621Z,9.656064
2018-06-25T01:38:52.030Z,9.656064
2018-06-25T01:39:04.418Z,3.218688
2018-06-25T01:39:16.813Z,3.218688
2018-06-25T01:39:29.219Z,3.218688
2018-06-25T01:39:41.618Z,3.218688
2018-06-25T01:39:54.017Z,3.218688
2018-06-25T01:40:06.424Z,1.609344
2018-06-25T01:40:18.832Z,1.609344
2018-06-25T01:40:31.272Z,1.609344
2018-06-25T01:40:43.694Z,1.609344
2018-06-25T01:40:56.106Z,1.609344
2018-06-25T01:41:08.500Z,1.609344
2018-06-25T01:41:20.909Z,3.218688
2018-06-25T01:41:33.314Z,6.437376
2018-06-25T01:41:45.924Z,11.265408
2018-06-25T01:41:58.359Z,11.265408
2018-06-25T01:42:10.782Z,4.828032
2018-06-25T01:42:23.201Z,6.437376
2018-06-25T01:42:35.623Z,8.04672
2018-06-25T01:42:48.182Z,9.656064
2018-06-25T01:43:00.603Z,9.656064
2018-06-25T01:43:13.012Z,9.656064
2018-06-25T01:43:25.424Z,9.656064
2018-06-25T01:43:37.826Z,9.656064
2018-06-25T01:43:50.238Z,9.656064
2018-06-25T01:44:02.664Z,9.656064
2018-06-25T01:44:15.137Z,3.218688
2018-06-25T01:44:27.780Z,4.828032
2018-06-25T01:44:40.178Z,6.437376
2018-06-25T01:44:52.579Z,9.656064
2018-06-25T01:45:05.058Z,6.437376
2018-06-25T01:45:17.500Z,9.656064
2018-06-25T01:45:29.886Z,9.656064
2018-06-25T01:45:42.319Z,9.656064
2018-06-25T01:45:54.974Z,9.656064
2018-06-25T01:46:07.403Z,8.04672
2018-06-25T01:46:19.828Z,8.04672
2018-06-25T01:46:32.254Z,9.656064
2018-06-25T01:46:44.666Z,9.656064
2018-06-25T01:46:57.070Z,9.656064
2018-06-25T01:47:09.490Z,4.828032
2018-06-25T01:47:21.926Z,6.437376
2018-06-25T01:47:34.337Z,6.437376
2018-06-25T01:47:46.863Z,6.437376
2018-06-25T01:47:59.268Z,6.437376
2018-06-25T01:48:11.699Z,8.04672
2018-06-25T01:48:24.119Z,9.656064
2018-06-25T01:48:36.680Z,9.656064
2018-06-25T01:48:49.090Z,9.656064
2018-06-25T01:49:01.501Z,9.656064
2018-06-25T01:49:13.977Z,6.437376
2018-06-25T01:49:26.405Z,6.437376
2018-06-25T01:49:38.812Z,8.04672
2018-06-25T01:49:51.216Z,9.656064
2018-06-25T01:50:03.625Z,8.04672
2018-06-25T01:50:16.051Z,8.04672
2018-06-25T01:50:28.483Z,8.04672
2018-06-25T01:50:40.901Z,8.04672
2018-06-25T01:50:53.438Z,8.04672
2018-06-25T01:51:05.855Z,4.828032
2018-06-25T01:51:18.284Z,9.656064
2018-06-25T01:51:30.690Z,9.656064
2018-06-25T01:51:43.120Z,9.656064
2018-06-25T01:51:55.523Z,9.656064
2018-06-25T01:52:07.951Z,1.609344
2018-06-25T01:52:20.403Z,3.218688
2018-06-25T01:52:32.828Z,3.218688
2018-06-25T01:52:45.238Z,3.218688
2018-06-25T01:52:57.659Z,4.828032
2018-06-25T01:53:10.051Z,6.437376
2018-06-25T01:53:22.477Z,6.437376
2018-06-25T01:53:34.876Z,8.04672
2018-06-25T01:53:47.314Z,8.04672
2018-06-25T01:53:59.721Z,8.04672
2018-06-25T01:54:12.161Z,6.437376
2018-06-25T01:54:24.563Z,8.04672
2018-06-25T01:54:36.975Z,8.04672
2018-06-25T01:54:49.446Z,8.04672
2018-06-25T01:55:01.856Z,8.04672
2018-06-25T01:55:14.254Z,3.218688
2018-06-25T01:55:26.658Z,6.437376
2018-06-25T01:55:39.097Z,8.04672
2018-06-25T01:55:51.480Z,8.04672
2018-06-25T01:56:03.886Z,6.437376
2018-06-25T01:56:16.344Z,8.04672
2018-06-25T01:56:28.749Z,9.656064
2018-06-25T01:56:41.155Z,9.656064
2018-06-25T01:56:53.582Z,9.656064
2018-06-25T01:57:05.996Z,8.04672
2018-06-25T01:57:18.433Z,8.04672
2018-06-25T01:57:30.823Z,8.04672
2018-06-25T01:57:43.226Z,8.04672
2018-06-25T01:57:55.635Z,8.04672
2018-06-25T01:58:08.029Z,3.218688
2018-06-25T01:58:20.493Z,3.218688
2018-06-25T01:58:32.877Z,3.218688
2018-06-25T01:58:45.361Z,8.04672
2018-06-25T01:58:57.761Z,8.04672
2018-06-25T01:59:10.226Z,3.218688
2018-06-25T01:59:22.637Z,4.828032
2018-06-25T01:59:35.053Z,4.828032
2018-06-25T01:59:47.478Z,4.828032
2018-06-25T01:59:59.888Z,4.828032
2018-06-25T02:00:12.374Z,1.609344
2018-06-25T02:00:24.827Z,3.218688
2018-06-25T02:00:37.264Z,8.04672
2018-06-25T02:00:49.695Z,9.656064
2018-06-25T02:01:02.319Z,9.656064
2018-06-25T02:01:14.953Z,4.828032
2018-06-25T02:01:27.375Z,8.04672
2018-06-25T02:01:39.789Z,9.656064
2018-06-25T02:01:52.197Z,9.656064
2018-06-25T02:02:04.633Z,8.04672
2018-06-25T02:02:17.055Z,8.04672
2018-06-25T02:02:29.454Z,9.656064
2018-06-25T02:02:41.898Z,9.656064
2018-06-25T02:02:54.314Z,9.656064
2018-06-25T02:03:06.705Z,8.04672
2018-06-25T02:03:19.111Z,9.656064
2018-06-25T02:03:31.578Z,9.656064
2018-06-25T02:03:43.986Z,9.656064
2018-06-25T02:03:56.413Z,9.656064
2018-06-25T02:04:08.828Z,8.04672
2018-06-25T02:04:21.245Z,8.04672
2018-06-25T02:04:33.666Z,8.04672
2018-06-25T02:04:46.074Z,9.656064
2018-06-25T02:04:58.469Z,9.656064
2018-06-25T02:05:10.895Z,6.437376
2018-06-25T02:05:23.337Z,6.437376
2018-06-25T02:05:35.761Z,6.437376
2018-06-25T02:05:48.182Z,8.04672
2018-06-25T02:06:00.607Z,8.04672
2018-06-25T02:06:13.097Z,6.437376
2018-06-25T02:06:25.520Z,6.437376
2018-06-25T02:06:37.938Z,6.437376
2018-06-25T02:06:50.342Z,6.437376
2018-06-25T02:07:02.751Z,6.437376
2018-06-25T02:07:15.135Z,1.609344
2018-06-25T02:07:27.513Z,1.609344
2018-06-25T02:07:39.949Z,1.609344
2018-06-25T02:07:52.403Z,3.218688
2018-06-25T02:08:04.817Z,1.609344
2018-06-25T02:08:17.223Z,6.437376
2018-06-25T02:08:29.623Z,6.437376
2018-06-25T02:08:42.018Z,6.437376
2018-06-25T02:08:54.429Z,6.437376
2018-06-25T02:09:06.827Z,8.04672
2018-06-25T02:09:19.244Z,8.04672
2018-06-25T02:09:31.627Z,8.04672
2018-06-25T02:09:44.023Z,8.04672
2018-06-25T02:09:56.422Z,8.04672
2018-06-25T02:10:08.812Z,1.609344
2018-06-25T02:10:21.216Z,3.218688
2018-06-25T02:10:33.662Z,3.218688
2018-06-25T02:10:46.056Z,3.218688
2018-06-25T02:10:58.468Z,8.04672
2018-06-25T02:11:10.872Z,6.437376
2018-06-25T02:11:23.292Z,6.437376
2018-06-25T02:11:35.734Z,6.437376
2018-06-25T02:11:48.133Z,6.437376
2018-06-25T02:12:00.518Z,6.437376
2018-06-25T02:12:12.913Z,4.828032
2018-06-25T02:12:25.318Z,6.437376
2018-06-25T02:12:37.725Z,6.437376
2018-06-25T02:12:50.200Z,6.437376
2018-06-25T02:13:02.609Z,6.437376
2018-06-25T02:13:15.019Z,3.218688
2018-06-25T02:13:27.432Z,3.218688
2018-06-25T02:13:39.842Z,6.437376
2018-06-25T02:13:52.250Z,8.04672
2018-06-25T02:14:04.635Z,6.437376
2018-06-25T02:14:17.033Z,6.437376
2018-06-25T02:14:29.428Z,6.437376
2018-06-25T02:14:41.855Z,6.437376
2018-06-25T02:14:54.266Z,6.437376
2018-06-25T02:15:06.671Z,3.218688
2018-06-25T02:15:19.073Z,3.218688
2018-06-25T02:15:31.469Z,3.218688
2018-06-25T02:15:43.881Z,4.828032
2018-06-25T02:15:56.282Z,4.828032
2018-06-25T02:16:08.692Z,1.609344
2018-06-25T02:16:21.102Z,1.609344
2018-06-25T02:16:33.509Z,1.609344
2018-06-25T02:16:45.988Z,1.609344
2018-06-25T02:16:58.384Z,1.609344
2018-06-25T02:17:10.812Z,1.609344
2018-06-25T02:17:23.206Z,1.609344
2018-06-25T02:17:35.611Z,3.218688
2018-06-25T02:17:48.059Z,6.437376
2018-06-25T02:18:00.468Z,9.656064
2018-06-25T02:18:12.880Z,8.04672
2018-06-25T02:18:25.296Z,8.04672
2018-06-25T02:18:37.706Z,8.04672
2018-06-25T02:18:50.156Z,8.04672
2018-06-25T02:19:02.642Z,8.04672
2018-06-25T02:19:15.047Z,4.828032
2018-06-25T02:19:27.441Z,4.828032
2018-06-25T02:19:39.832Z,4.828032
2018-06-25T02:19:52.251Z,6.437376
2018-06-25T02:20:04.705Z,4.828032
2018-06-25T02:20:17.099Z,8.04672
2018-06-25T02:20:29.497Z,8.04672
2018-06-25T02:20:42.023Z,8.04672
2018-06-25T02:20:54.438Z,8.04672
2018-06-25T02:21:06.854Z,8.04672
2018-06-25T02:21:19.248Z,8.04672
2018-06-25T02:21:31.648Z,8.04672
2018-06-25T02:21:44.098Z,8.04672
2018-06-25T02:21:56.490Z,8.04672
2018-06-25T02:22:08.892Z,6.437376
2018-06-25T02:22:21.292Z,8.04672
2018-06-25T02:22:33.685Z,8.04672
2018-06-25T02:22:46.083Z,8.04672
2018-06-25T02:22:58.474Z,8.04672
2018-06-25T02:23:10.872Z,3.218688
2018-06-25T02:23:23.276Z,4.828032
2018-06-25T02:23:35.661Z,6.437376
2018-06-25T02:23:48.056Z,6.437376
2018-06-25T02:24:00.439Z,6.437376
2018-06-25T02:24:12.834Z,8.04672
2018-06-25T02:24:25.242Z,9.656064
2018-06-25T02:24:37.650Z,9.656064
2018-06-25T02:24:50.048Z,9.656064
2018-06-25T02:25:02.454Z,9.656064
2018-06-25T02:25:14.840Z,6.437376
2018-06-25T02:25:27.227Z,9.656064
2018-06-25T02:25:39.659Z,11.265408
2018-06-25T02:25:52.079Z,11.265408
2018-06-25T02:26:04.477Z,8.04672
2018-06-25T02:26:16.890Z,8.04672
2018-06-25T02:26:29.512Z,9.656064
2018-06-25T02:26:41.910Z,9.656064